createdAt,value
2017-11-23T00:01:03.769Z,32.30
2017-11-23T00:03:31.249Z,31.03
2017-11-23T00:05:58.726Z,30.47
2017-11-23T00:08:26.976Z,31.40
2017-11-23T00:10:54.467Z,29.47
2017-11-23T00:13:22.710Z,45.40
2017-11-23T00:15:50.193Z,33.57
2017-11-23T00:18:18.434Z,34.67
2017-11-23T00:20:45.914Z,31.43
2017-11-23T00:23:14.165Z,30.30
2017-11-23T00:25:41.641Z,32.93
2017-11-23T00:28:09.126Z,85.13
2017-11-23T00:30:37.375Z,58.27
2017-11-23T00:33:04.859Z,35.97
2017-11-23T00:35:33.112Z,35.43
2017-11-23T00:38:00.602Z,35.93
2017-11-23T00:40:28.842Z,33.73
2017-11-23T00:42:56.322Z,34.83
2017-11-23T00:45:24.568Z,33.30
2017-11-23T00:47:53.846Z,32.23
2017-11-23T00:50:21.764Z,34.33
2017-11-23T00:52:49.711Z,37.47
2017-11-23T00:55:17.894Z,34.87
2017-11-23T00:57:45.617Z,34.20
2017-11-23T01:00:13.820Z,40.60
2017-11-23T01:02:41.346Z,32.67
2017-11-23T01:05:08.830Z,34.17
2017-11-23T01:07:36.578Z,30.73
2017-11-23T01:10:04.885Z,31.13
2017-11-23T01:12:33.027Z,32.90
2017-11-23T01:15:00.917Z,41.83
2017-11-23T01:17:28.710Z,40.07
2017-11-23T01:19:56.787Z,39.20
2017-11-23T01:22:29.986Z,40.30
2017-11-23T01:24:57.462Z,30.03
2017-11-23T01:27:25.705Z,30.83
2017-11-23T01:29:53.182Z,27.70
2017-11-23T01:32:21.432Z,26.07
2017-11-23T01:34:48.911Z,25.63
2017-11-23T01:37:16.393Z,26.43
2017-11-23T01:39:44.634Z,34.90
2017-11-23T01:42:12.111Z,30.47
2017-11-23T01:44:40.360Z,35.17
2017-11-23T01:47:07.847Z,29.90
2017-11-23T01:49:36.093Z,32.23
2017-11-23T01:52:03.578Z,38.63
2017-11-23T01:54:31.055Z,35.97
2017-11-23T01:56:59.297Z,38.47
2017-11-23T01:59:26.776Z,41.13
2017-11-23T02:01:55.031Z,47.13
2017-11-23T02:04:22.510Z,45.93
2017-11-23T02:06:50.757Z,48.87
2017-11-23T02:09:18.234Z,49.00
2017-11-23T02:11:47.219Z,51.33
2017-11-23T02:14:14.728Z,56.37
2017-11-23T02:16:42.232Z,64.47
2017-11-23T02:19:09.718Z,64.67
2017-11-23T02:21:37.977Z,67.23
2017-11-23T02:24:05.483Z,68.87
2017-11-23T02:26:33.003Z,78.90
2017-11-23T02:29:00.493Z,77.37
2017-11-23T02:31:28.895Z,78.03
2017-11-23T02:33:56.402Z,78.33
2017-11-23T02:36:23.891Z,77.77
2017-11-23T02:38:51.384Z,77.93
2017-11-23T02:41:18.878Z,71.23
2017-11-23T02:43:46.508Z,65.57
2017-11-23T02:46:13.991Z,62.87
2017-11-23T02:48:41.494Z,65.20
2017-11-23T02:51:08.977Z,63.67
2017-11-23T02:53:36.463Z,56.50
2017-11-23T02:56:03.946Z,56.13
2017-11-23T02:58:31.418Z,44.50
2017-11-23T03:00:59.675Z,44.60
2017-11-23T03:03:27.189Z,44.00
2017-11-23T03:05:54.687Z,48.80
2017-11-23T03:08:22.178Z,45.97
2017-11-23T03:10:49.673Z,48.60
2017-11-23T03:13:17.165Z,51.83
2017-11-23T03:15:44.645Z,66.00
2017-11-23T03:18:12.927Z,72.83
2017-11-23T03:20:41.215Z,79.17
2017-11-23T03:23:08.719Z,80.20
2017-11-23T03:25:36.202Z,94.57
2017-11-23T03:28:03.690Z,92.87
2017-11-23T03:30:31.937Z,96.77
2017-11-23T03:32:59.444Z,101.57
2017-11-23T03:35:26.935Z,103.60
2017-11-23T03:37:54.450Z,101.83
2017-11-23T03:40:21.937Z,99.73
2017-11-23T03:42:49.449Z,100.80
2017-11-23T03:45:17.719Z,98.73
2017-11-23T03:47:46.004Z,97.03
2017-11-23T03:50:14.254Z,92.20
2017-11-23T03:52:41.742Z,97.50
2017-11-23T03:55:09.986Z,90.83
2017-11-23T03:57:37.477Z,95.23
2017-11-23T04:00:05.870Z,89.97
2017-11-23T04:02:33.451Z,89.53
2017-11-23T04:05:00.968Z,92.93
2017-11-23T04:07:28.456Z,94.00
2017-11-23T04:09:55.948Z,90.70
2017-11-23T04:12:23.434Z,93.20
2017-11-23T04:14:51.051Z,99.47
2017-11-23T04:17:18.945Z,99.13
2017-11-23T04:19:47.288Z,98.10
2017-11-23T04:22:14.790Z,92.53
2017-11-23T04:24:42.302Z,101.47
2017-11-23T04:27:10.107Z,106.53
2017-11-23T04:29:37.925Z,104.90
2017-11-23T04:32:06.326Z,99.67
2017-11-23T04:34:33.974Z,89.33
2017-11-23T04:37:01.467Z,85.17
2017-11-23T04:39:28.986Z,86.63
2017-11-23T04:41:57.392Z,92.57
2017-11-23T04:44:25.174Z,86.30
2017-11-23T04:46:52.846Z,89.00
2017-11-23T04:49:21.005Z,90.57
2017-11-23T04:51:49.439Z,88.43
2017-11-23T04:54:18.100Z,90.77
2017-11-23T04:56:45.765Z,84.10
2017-11-23T04:59:13.379Z,90.13
2017-11-23T05:01:41.776Z,92.23
2017-11-23T05:04:09.332Z,93.00
2017-11-23T05:06:37.999Z,99.33
2017-11-23T05:09:05.689Z,96.40
2017-11-23T05:11:34.507Z,104.10
2017-11-23T05:14:02.140Z,96.73
2017-11-23T05:16:30.674Z,94.80
2017-11-23T05:18:59.047Z,99.53
2017-11-23T05:21:27.181Z,98.10
2017-11-23T05:23:54.962Z,98.03
2017-11-23T05:26:22.497Z,87.17
2017-11-23T05:28:50.174Z,87.40
2017-11-23T05:31:18.853Z,80.97
2017-11-23T05:33:47.014Z,75.93
2017-11-23T05:36:14.887Z,76.17
2017-11-23T05:38:42.549Z,73.20
2017-11-23T05:41:10.465Z,71.50
2017-11-23T05:43:38.014Z,64.00
2017-11-23T05:46:05.494Z,65.03
2017-11-23T05:48:33.929Z,58.37
2017-11-23T05:51:01.566Z,60.40
2017-11-23T05:53:29.351Z,53.07
2017-11-23T05:55:56.961Z,53.70
2017-11-23T05:58:24.694Z,56.93
2017-11-23T06:00:52.215Z,54.23
2017-11-23T06:03:19.737Z,53.67
2017-11-23T06:05:47.998Z,52.10
2017-11-23T06:08:16.241Z,57.70
2017-11-23T06:10:44.041Z,60.10
2017-11-23T06:13:11.709Z,62.80
2017-11-23T06:15:39.439Z,52.37
2017-11-23T06:18:06.953Z,56.47
2017-11-23T06:20:34.561Z,52.10
2017-11-23T06:23:02.122Z,55.30
2017-11-23T06:25:29.649Z,54.97
2017-11-23T06:27:58.172Z,57.47
2017-11-23T06:30:26.478Z,57.50
2017-11-23T06:32:53.959Z,62.70
2017-11-23T06:35:21.434Z,61.60
2017-11-23T06:37:49.682Z,57.07
2017-11-23T06:40:17.155Z,57.23
2017-11-23T06:42:45.399Z,60.03
2017-11-23T06:45:12.886Z,75.23
2017-11-23T06:47:40.363Z,73.40
2017-11-23T06:50:08.627Z,72.63
2017-11-23T06:52:36.873Z,79.97
2017-11-23T06:55:04.346Z,82.73
2017-11-23T06:57:31.822Z,84.67
2017-11-23T07:00:00.140Z,89.57
2017-11-23T07:02:27.627Z,108.20
2017-11-23T07:04:55.114Z,117.07
2017-11-23T07:07:23.375Z,130.30
2017-11-23T07:09:50.860Z,140.33
2017-11-23T07:12:19.126Z,152.00
2017-11-23T07:14:47.382Z,150.40
2017-11-23T07:17:14.974Z,154.10
2017-11-23T07:19:43.224Z,156.73
2017-11-23T07:22:10.713Z,144.80
2017-11-23T07:24:38.962Z,145.13
2017-11-23T07:27:06.437Z,141.27
2017-11-23T07:29:34.690Z,145.77
2017-11-23T07:32:02.169Z,148.73
2017-11-23T07:34:29.658Z,156.00
2017-11-23T07:36:57.141Z,150.50
2017-11-23T07:39:24.622Z,137.60
2017-11-23T07:41:52.102Z,138.83
2017-11-23T07:44:19.582Z,149.70
2017-11-23T07:46:47.833Z,144.53
2017-11-23T07:49:15.312Z,151.43
2017-11-23T07:51:43.622Z,164.00
2017-11-23T07:54:11.103Z,156.50
2017-11-23T07:56:38.586Z,161.33
2017-11-23T07:59:08.411Z,161.60
2017-11-23T08:01:36.668Z,155.77
2017-11-23T08:04:04.150Z,154.17
2017-11-23T08:06:33.006Z,151.87
2017-11-23T08:09:00.487Z,164.17
2017-11-23T08:11:27.968Z,153.07
2017-11-23T08:13:56.226Z,154.00
2017-11-23T08:16:23.721Z,148.33
2017-11-23T08:18:51.206Z,151.90
2017-11-23T08:21:18.690Z,140.43
2017-11-23T08:23:46.947Z,139.23
2017-11-23T08:26:14.425Z,137.77
2017-11-23T08:28:41.914Z,134.93
2017-11-23T08:31:10.168Z,141.50
2017-11-23T08:33:37.655Z,142.90
2017-11-23T08:36:05.907Z,138.27
2017-11-23T08:38:33.385Z,135.77
2017-11-23T08:41:01.635Z,148.27
2017-11-23T08:43:29.115Z,148.63
2017-11-23T08:45:57.382Z,143.87
2017-11-23T08:48:24.870Z,148.40
2017-11-23T08:50:52.358Z,138.00
2017-11-23T08:53:19.841Z,141.97
2017-11-23T08:55:50.227Z,145.33
2017-11-23T08:58:17.714Z,146.10
2017-11-23T09:00:45.213Z,147.57
2017-11-23T09:03:13.471Z,147.60
2017-11-23T09:05:44.807Z,155.57
2017-11-23T09:08:12.311Z,147.60
2017-11-23T09:10:40.566Z,155.60
2017-11-23T09:13:08.874Z,150.27
2017-11-23T09:15:36.367Z,146.97
2017-11-23T09:18:03.862Z,149.47
2017-11-23T09:20:31.346Z,152.90
2017-11-23T09:22:59.602Z,149.97
2017-11-23T09:25:27.087Z,157.77
2017-11-23T09:27:54.577Z,150.87
2017-11-23T09:30:22.182Z,147.70
2017-11-23T09:32:49.673Z,147.97
2017-11-23T09:35:17.160Z,148.07
2017-11-23T09:37:44.643Z,150.73
2017-11-23T09:40:12.983Z,147.23
2017-11-23T09:42:40.477Z,141.57
2017-11-23T09:45:07.962Z,148.40
2017-11-23T09:47:36.222Z,142.67
2017-11-23T09:50:03.705Z,143.97
2017-11-23T09:52:31.954Z,151.00
2017-11-23T09:54:59.442Z,148.00
2017-11-23T09:57:27.698Z,144.77
2017-11-23T09:59:55.183Z,147.17
2017-11-23T10:02:23.446Z,146.33
2017-11-23T10:04:51.700Z,145.90
2017-11-23T10:07:19.190Z,150.20
2017-11-23T10:09:47.446Z,143.50
2017-11-23T10:12:14.932Z,146.83
2017-11-23T10:14:45.011Z,142.70
2017-11-23T10:17:12.508Z,146.33
2017-11-23T10:19:40.011Z,142.90
2017-11-23T10:22:07.494Z,144.60
2017-11-23T10:24:34.985Z,144.67
2017-11-23T10:27:03.247Z,145.90
2017-11-23T10:29:31.512Z,143.30
2017-11-23T10:31:58.995Z,150.17
2017-11-23T10:34:27.262Z,161.23
2017-11-23T10:36:55.525Z,146.10
2017-11-23T10:39:23.009Z,148.43
2017-11-23T10:41:51.263Z,149.23
2017-11-23T10:44:18.776Z,145.43
2017-11-23T10:46:46.271Z,141.33
2017-11-23T10:49:13.770Z,136.80
2017-11-23T10:51:42.018Z,144.87
2017-11-23T10:54:09.502Z,145.60
2017-11-23T10:56:37.751Z,145.83
2017-11-23T10:59:05.246Z,133.97
2017-11-23T11:01:32.741Z,134.10
2017-11-23T11:04:00.230Z,135.63
2017-11-23T11:06:27.716Z,124.70
2017-11-23T11:08:55.965Z,126.50
2017-11-23T11:11:23.453Z,128.90
2017-11-23T11:13:51.710Z,141.57
2017-11-23T11:16:19.971Z,129.07
2017-11-23T11:18:47.450Z,136.63
2017-11-23T11:21:15.714Z,137.40
2017-11-23T11:23:43.206Z,132.43
2017-11-23T11:26:10.694Z,136.13
2017-11-23T11:28:38.182Z,134.73
2017-11-23T11:31:05.673Z,128.83
2017-11-23T11:33:33.180Z,132.47
2017-11-23T11:36:00.666Z,122.93
2017-11-23T11:38:28.152Z,131.37
2017-11-23T11:40:55.649Z,121.90
2017-11-23T11:43:23.135Z,123.50
2017-11-23T11:45:50.622Z,121.20
2017-11-23T11:48:18.879Z,123.47
2017-11-23T11:50:46.361Z,122.70
2017-11-23T11:53:14.609Z,125.70
2017-11-23T11:55:42.093Z,124.73
2017-11-23T11:58:10.343Z,125.00
2017-11-23T12:00:37.826Z,122.00
2017-11-23T12:03:06.073Z,119.70
2017-11-23T12:05:33.563Z,122.83
2017-11-23T12:08:01.821Z,132.60
2017-11-23T12:10:29.307Z,129.60
2017-11-23T12:12:57.558Z,130.77
2017-11-23T12:15:33.001Z,122.93
2017-11-23T12:18:13.906Z,665.20
2017-11-23T12:20:54.147Z,121.70
2017-11-23T12:23:34.170Z,247.17
2017-11-23T12:26:01.659Z,140.70
2017-11-23T12:28:41.942Z,123.47
2017-11-23T12:31:09.429Z,127.67
2017-11-23T12:33:36.911Z,153.17
2017-11-23T12:36:04.401Z,125.00
2017-11-23T12:38:32.660Z,119.33
2017-11-23T12:41:00.146Z,115.40
2017-11-23T12:43:28.400Z,130.93
2017-11-23T12:45:55.887Z,125.07
2017-11-23T12:48:23.381Z,117.53
2017-11-23T12:50:50.866Z,116.37
2017-11-23T12:53:18.350Z,113.97
2017-11-23T12:55:46.607Z,114.47
2017-11-23T12:58:14.089Z,120.40
2017-11-23T13:00:42.350Z,114.57
2017-11-23T13:03:09.846Z,127.87
2017-11-23T13:05:37.326Z,230.07
2017-11-23T13:08:04.876Z,121.43
2017-11-23T13:10:32.435Z,121.90
2017-11-23T13:12:59.921Z,120.90
2017-11-23T13:15:27.410Z,130.73
2017-11-23T13:17:55.686Z,135.40
2017-11-23T13:20:23.194Z,202.47
2017-11-23T13:22:50.678Z,133.97
2017-11-23T13:25:18.174Z,133.60
2017-11-23T13:27:46.441Z,130.70
2017-11-23T13:30:14.702Z,133.97
2017-11-23T13:32:42.186Z,135.57
2017-11-23T13:35:10.447Z,134.20
2017-11-23T13:37:37.932Z,135.63
2017-11-23T13:40:05.427Z,133.10
2017-11-23T13:42:32.923Z,135.97
2017-11-23T13:45:00.406Z,135.07
2017-11-23T13:47:28.659Z,135.67
2017-11-23T13:49:56.142Z,140.87
2017-11-23T13:52:24.401Z,133.67
2017-11-23T13:54:52.679Z,129.23
2017-11-23T13:57:20.949Z,136.07
2017-11-23T13:59:48.441Z,135.13
2017-11-23T14:02:15.929Z,135.40
2017-11-23T14:04:43.414Z,133.20
2017-11-23T14:07:10.898Z,132.63
2017-11-23T14:09:39.156Z,133.67
2017-11-23T14:12:06.641Z,135.90
2017-11-23T14:14:34.889Z,133.73
2017-11-23T14:17:03.151Z,133.67
2017-11-23T14:19:30.641Z,130.80
2017-11-23T14:21:58.902Z,138.37
2017-11-23T14:24:26.431Z,143.80
2017-11-23T14:26:53.910Z,140.93
2017-11-23T14:29:21.403Z,134.10
2017-11-23T14:31:49.666Z,140.60
2017-11-23T14:34:17.146Z,136.33
2017-11-23T14:36:45.394Z,137.70
2017-11-23T14:39:12.883Z,135.17
2017-11-23T14:41:41.131Z,135.07
2017-11-23T14:44:10.127Z,133.50
2017-11-23T14:46:37.615Z,133.67
2017-11-23T14:49:05.869Z,135.30
2017-11-23T14:51:34.125Z,133.47
2017-11-23T14:54:01.615Z,136.37
2017-11-23T14:56:29.866Z,130.27
2017-11-23T14:58:57.340Z,134.30
2017-11-23T15:01:24.823Z,142.10
2017-11-23T15:03:53.080Z,133.83
2017-11-23T15:06:21.338Z,140.00
2017-11-23T15:08:48.818Z,139.20
2017-11-23T15:11:17.078Z,139.87
2017-11-23T15:13:44.562Z,133.80
2017-11-23T15:16:12.814Z,142.47
2017-11-23T15:18:40.297Z,128.37
2017-11-23T15:21:08.548Z,135.70
2017-11-23T15:23:36.037Z,136.70
2017-11-23T15:26:04.295Z,140.70
2017-11-23T15:28:31.778Z,143.93
2017-11-23T15:31:00.031Z,138.63
2017-11-23T15:33:28.898Z,134.87
2017-11-23T15:35:56.385Z,131.53
2017-11-23T15:38:23.871Z,143.07
2017-11-23T15:40:51.368Z,132.37
2017-11-23T15:43:18.846Z,135.47
2017-11-23T15:45:46.341Z,135.83
2017-11-23T15:48:14.591Z,142.13
2017-11-23T15:50:42.073Z,147.87
2017-11-23T15:53:10.353Z,145.03
2017-11-23T15:55:37.855Z,147.67
2017-11-23T15:58:05.343Z,149.90
2017-11-23T16:00:32.834Z,150.00
2017-11-23T16:03:01.086Z,150.33
2017-11-23T16:05:28.572Z,143.83
2017-11-23T16:07:56.098Z,137.47
2017-11-23T16:10:23.634Z,136.27
2017-11-23T16:12:51.132Z,142.43
2017-11-23T16:15:19.398Z,146.17
2017-11-23T16:17:46.918Z,144.40
2017-11-23T16:20:14.422Z,142.03
2017-11-23T16:22:41.970Z,147.40
2017-11-23T16:25:09.463Z,149.97
2017-11-23T16:27:36.970Z,152.37
2017-11-23T16:30:04.450Z,144.90
2017-11-23T16:32:31.934Z,147.07
2017-11-23T16:35:00.195Z,146.90
2017-11-23T16:37:45.523Z,148.80
2017-11-23T16:40:13.607Z,148.30
2017-11-23T16:42:46.134Z,147.30
2017-11-23T16:45:19.902Z,150.83
2017-11-23T16:47:53.200Z,146.87
2017-11-23T16:50:26.371Z,146.40
2017-11-23T16:52:59.418Z,148.23
2017-11-23T16:55:33.478Z,143.80
2017-11-23T16:58:16.638Z,148.37
2017-11-23T17:00:49.711Z,138.67
2017-11-23T17:03:32.080Z,137.23
2017-11-23T17:06:05.294Z,141.50
2017-11-23T17:08:38.414Z,141.67
2017-11-23T17:11:11.634Z,146.13
2017-11-23T17:13:45.737Z,147.33
2017-11-23T17:16:28.874Z,151.63
2017-11-23T17:19:07.039Z,147.70
2017-11-23T17:21:34.534Z,145.30
2017-11-23T17:24:02.786Z,142.67
2017-11-23T17:26:30.270Z,136.80
2017-11-23T17:28:58.524Z,136.30
2017-11-23T17:31:26.012Z,141.37
2017-11-23T17:33:54.265Z,138.50
2017-11-23T17:36:21.767Z,133.30
2017-11-23T17:38:49.273Z,137.17
2017-11-23T17:41:16.761Z,136.00
2017-11-23T17:43:45.846Z,138.10
2017-11-23T17:46:13.331Z,134.77
2017-11-23T17:48:41.587Z,137.17
2017-11-23T17:51:09.074Z,133.90
2017-11-23T17:53:36.562Z,128.53
2017-11-23T17:56:04.045Z,133.53
2017-11-23T17:58:31.568Z,128.83
2017-11-23T18:00:59.053Z,127.57
2017-11-23T18:03:26.542Z,126.80
2017-11-23T18:05:54.806Z,129.67
2017-11-23T18:08:22.291Z,123.20
2017-11-23T18:10:50.549Z,127.63
2017-11-23T18:13:18.045Z,124.33
2017-11-23T18:15:45.534Z,127.90
2017-11-23T18:18:13.023Z,129.00
2017-11-23T18:20:40.510Z,119.70
2017-11-23T18:23:08.757Z,123.57
2017-11-23T18:25:36.249Z,123.47
2017-11-23T18:28:03.763Z,119.20
2017-11-23T18:30:31.293Z,116.47
2017-11-23T18:32:58.826Z,114.20
2017-11-23T18:35:26.380Z,117.03
2017-11-23T18:37:54.699Z,117.57
2017-11-23T18:40:22.259Z,116.60
2017-11-23T18:42:49.807Z,115.20
2017-11-23T18:45:17.336Z,119.10
2017-11-23T18:47:45.976Z,124.07
2017-11-23T18:50:13.628Z,113.07
2017-11-23T18:52:41.155Z,110.27
2017-11-23T18:55:08.646Z,112.93
2017-11-23T18:57:36.167Z,117.70
2017-11-23T19:00:04.450Z,119.87
2017-11-23T19:02:32.094Z,130.53
2017-11-23T19:05:00.366Z,108.00
2017-11-23T19:07:27.861Z,111.67
2017-11-23T19:09:55.371Z,113.40
2017-11-23T19:12:23.630Z,110.93
2017-11-23T19:14:51.149Z,116.10
2017-11-23T19:17:18.671Z,110.40
2017-11-23T19:19:46.154Z,112.67
2017-11-23T19:22:14.466Z,107.27
2017-11-23T19:24:41.983Z,107.30
2017-11-23T19:27:10.379Z,113.53
2017-11-23T19:29:38.691Z,105.93
2017-11-23T19:32:06.174Z,105.13
2017-11-23T19:34:33.663Z,99.67
2017-11-23T19:37:01.946Z,105.40
2017-11-23T19:39:30.222Z,97.40
2017-11-23T19:41:58.482Z,100.67
2017-11-23T19:44:25.987Z,98.40
2017-11-23T19:46:53.536Z,88.80
2017-11-23T19:49:21.014Z,89.07
2017-11-23T19:51:48.498Z,87.80
2017-11-23T19:54:15.974Z,88.80
2017-11-23T19:56:43.473Z,93.00
2017-11-23T19:59:10.954Z,89.73
2017-11-23T20:01:38.461Z,85.00
2017-11-23T20:04:06.068Z,90.67
2017-11-23T20:06:33.574Z,86.43
2017-11-23T20:09:01.079Z,90.63
2017-11-23T20:11:28.562Z,83.73
2017-11-23T20:13:56.062Z,88.83
2017-11-23T20:16:23.535Z,91.47
2017-11-23T20:18:51.799Z,84.30
2017-11-23T20:21:20.126Z,76.67
2017-11-23T20:23:47.646Z,79.70
2017-11-23T20:26:15.975Z,76.60
2017-11-23T20:28:43.479Z,76.03
2017-11-23T20:31:11.787Z,78.50
2017-11-23T20:33:39.466Z,84.90
2017-11-23T20:36:07.573Z,79.80
2017-11-23T20:38:35.860Z,82.80
2017-11-23T20:41:03.537Z,78.37
2017-11-23T20:43:31.804Z,75.20
2017-11-23T20:45:59.366Z,70.03
2017-11-23T20:48:27.072Z,74.37
2017-11-23T20:50:54.637Z,72.57
2017-11-23T20:53:22.293Z,75.13
2017-11-23T20:55:49.783Z,73.17
2017-11-23T20:58:17.257Z,74.10
2017-11-23T21:00:44.731Z,75.13
2017-11-23T21:03:12.987Z,67.43
2017-11-23T21:05:40.463Z,76.10
2017-11-23T21:08:08.737Z,73.40
2017-11-23T21:10:36.219Z,68.80
2017-11-23T21:13:04.468Z,70.63
2017-11-23T21:15:31.946Z,71.97
2017-11-23T21:18:00.189Z,78.30
2017-11-23T21:20:27.666Z,78.93
2017-11-23T21:22:55.145Z,71.70
2017-11-23T21:25:23.385Z,73.67
2017-11-23T21:27:50.857Z,70.27
2017-11-23T21:30:18.337Z,66.87
2017-11-23T21:32:46.590Z,70.33
2017-11-23T21:35:14.079Z,67.80
2017-11-23T21:37:42.332Z,60.30
2017-11-23T21:40:09.810Z,65.60
2017-11-23T21:42:38.058Z,59.27
2017-11-23T21:45:05.538Z,61.80
2017-11-23T21:47:33.781Z,58.73
2017-11-23T21:50:01.262Z,61.30
2017-11-23T21:52:29.514Z,59.87
2017-11-23T21:54:56.990Z,59.80
2017-11-23T21:57:24.466Z,58.57
2017-11-23T21:59:52.745Z,56.57
2017-11-23T22:02:20.218Z,58.80
2017-11-23T22:04:48.460Z,57.33
2017-11-23T22:07:15.935Z,58.70
2017-11-23T22:09:44.186Z,58.27
2017-11-23T22:12:11.661Z,60.00
2017-11-23T22:14:39.144Z,56.97
2017-11-23T22:17:07.390Z,58.87
2017-11-23T22:19:34.867Z,58.93
2017-11-23T22:22:03.118Z,58.90
2017-11-23T22:24:30.605Z,56.10
2017-11-23T22:26:58.849Z,54.77
2017-11-23T22:29:26.337Z,57.97
2017-11-23T22:31:54.582Z,58.13
2017-11-23T22:34:22.058Z,58.67
2017-11-23T22:36:49.545Z,55.80
2017-11-23T22:39:17.790Z,57.70
2017-11-23T22:41:45.261Z,62.23
2017-11-23T22:44:12.750Z,57.47
2017-11-23T22:46:40.240Z,51.37
2017-11-23T22:49:07.722Z,53.03
2017-11-23T22:51:35.198Z,53.57
2017-11-23T22:54:02.687Z,51.93
2017-11-23T22:56:30.175Z,55.37
2017-11-23T22:58:57.650Z,51.90
2017-11-23T23:01:25.129Z,55.40
2017-11-23T23:03:52.598Z,53.47
2017-11-23T23:06:20.846Z,54.60
2017-11-23T23:08:48.326Z,55.37
2017-11-23T23:11:15.809Z,55.43
2017-11-23T23:13:44.049Z,52.13
2017-11-23T23:16:11.526Z,54.90
2017-11-23T23:18:39.770Z,55.43
2017-11-23T23:21:07.247Z,52.23
2017-11-23T23:23:34.742Z,54.67
2017-11-23T23:26:02.221Z,49.30
2017-11-23T23:28:29.698Z,51.87
2017-11-23T23:30:57.183Z,50.67
2017-11-23T23:33:24.667Z,49.67
2017-11-23T23:35:52.916Z,48.37
2017-11-23T23:38:20.390Z,50.37
2017-11-23T23:40:48.638Z,49.30
2017-11-23T23:43:16.122Z,49.17
2017-11-23T23:45:43.605Z,52.10
2017-11-23T23:48:11.081Z,50.30
2017-11-23T23:50:38.554Z,50.13
2017-11-23T23:53:06.030Z,46.90
2017-11-23T23:55:33.530Z,47.47
2017-11-23T23:58:01.983Z,46.80
